createdAt,value
2019-02-25T00:03:10.780Z,67.05
2019-02-25T00:07:12.709Z,67.29
2019-02-25T00:11:15.993Z,67.40
2019-02-25T00:15:17.908Z,67.28
2019-02-25T00:19:19.852Z,67.11
2019-02-25T00:23:21.769Z,67.57
2019-02-25T00:27:23.680Z,67.19
2019-02-25T00:31:25.591Z,66.75
2019-02-25T00:35:27.507Z,66.75
2019-02-25T00:39:29.420Z,66.88
2019-02-25T00:43:31.336Z,67.82
2019-02-25T00:47:33.253Z,67.92
2019-02-25T00:51:36.130Z,68.15
2019-02-25T00:55:38.044Z,67.74
2019-02-25T00:59:40.334Z,68.20
2019-02-25T01:03:42.254Z,68.29
2019-02-25T01:07:44.191Z,68.29
2019-02-25T01:11:46.096Z,68.55
2019-02-25T01:15:48.005Z,68.76
2019-02-25T01:19:49.928Z,68.69
2019-02-25T01:23:51.889Z,68.62
2019-02-25T01:27:53.812Z,68.52
2019-02-25T01:31:55.736Z,69.30
2019-02-25T01:35:57.674Z,69.25
2019-02-25T01:40:00.542Z,69.19
2019-02-25T01:44:04.109Z,69.40
2019-02-25T01:48:06.033Z,69.42
2019-02-25T01:52:07.940Z,69.04
2019-02-25T01:56:09.858Z,69.16
2019-02-25T02:00:16.186Z,69.33
2019-02-25T02:04:18.187Z,69.82
2019-02-25T02:08:20.123Z,70.25
2019-02-25T02:12:22.026Z,70.72
2019-02-25T02:16:23.955Z,71.31
2019-02-25T02:20:25.868Z,71.05
2019-02-25T02:24:27.781Z,71.63
2019-02-25T02:28:29.701Z,71.81
2019-02-25T02:32:31.627Z,71.80
2019-02-25T02:36:33.551Z,71.62
2019-02-25T02:40:35.469Z,71.48
2019-02-25T02:44:37.408Z,71.60
2019-02-25T02:48:46.746Z,72.13
2019-02-25T02:52:48.658Z,71.83
2019-02-25T02:56:50.593Z,71.57
2019-02-25T03:00:52.505Z,71.38
2019-02-25T03:04:55.609Z,71.46
2019-02-25T03:08:57.529Z,71.62
2019-02-25T03:12:59.438Z,71.86
2019-02-25T03:17:03.941Z,71.93
2019-02-25T03:21:05.916Z,71.96
2019-02-25T03:25:11.891Z,71.98
2019-02-25T03:29:13.812Z,72.01
2019-02-25T03:33:16.115Z,72.16
2019-02-25T03:37:18.088Z,72.15
2019-02-25T03:41:20.084Z,71.88
2019-02-25T03:45:22.189Z,71.88
2019-02-25T03:49:24.085Z,71.91
2019-02-25T03:53:26.096Z,72.47
2019-02-25T03:57:28.006Z,72.61
2019-02-25T04:01:29.930Z,72.55
2019-02-25T04:05:32.106Z,72.53
2019-02-25T04:09:34.007Z,72.74
2019-02-25T04:13:35.925Z,73.02
2019-02-25T04:17:37.841Z,73.04
2019-02-25T04:21:39.765Z,73.05
2019-02-25T04:25:41.680Z,73.87
2019-02-25T04:29:43.669Z,74.16
2019-02-25T04:33:45.578Z,74.29
2019-02-25T04:37:47.493Z,73.83
2019-02-25T04:41:49.410Z,73.61
2019-02-25T04:45:51.384Z,74.02
2019-02-25T04:49:53.300Z,74.25
2019-02-25T04:53:55.251Z,74.07
2019-02-25T04:57:57.242Z,74.01
2019-02-25T05:01:59.198Z,74.36
2019-02-25T05:06:03.282Z,74.83
2019-02-25T05:10:11.800Z,74.37
2019-02-25T05:14:13.706Z,74.22
2019-02-25T05:18:16.092Z,75.03
2019-02-25T05:22:18.053Z,74.95
2019-02-25T05:26:19.965Z,74.46
2019-02-25T05:30:21.867Z,75.02
2019-02-25T05:34:23.780Z,74.79
2019-02-25T05:38:25.703Z,74.57
2019-02-25T05:42:27.618Z,74.84
2019-02-25T05:46:29.537Z,74.97
2019-02-25T05:50:31.551Z,75.05
2019-02-25T05:54:33.492Z,74.72
2019-02-25T05:58:35.415Z,74.97
2019-02-25T06:02:37.362Z,74.81
2019-02-25T06:06:39.257Z,75.37
2019-02-25T06:10:41.347Z,75.05
2019-02-25T06:14:43.250Z,75.35
2019-02-25T06:18:45.190Z,75.52
2019-02-25T06:22:47.178Z,75.78
2019-02-25T06:26:49.095Z,75.50
2019-02-25T06:30:51.012Z,75.23
2019-02-25T06:34:52.914Z,75.23
2019-02-25T06:38:54.837Z,75.17
2019-02-25T06:42:56.760Z,75.02
2019-02-25T06:46:58.766Z,75.49
2019-02-25T06:51:00.683Z,75.46
2019-02-25T06:55:02.592Z,75.78
2019-02-25T06:59:04.595Z,75.75
2019-02-25T07:03:06.518Z,74.81
2019-02-25T07:07:19.019Z,75.59
2019-02-25T07:11:22.580Z,75.65
2019-02-25T07:15:35.140Z,75.63
2019-02-25T07:19:38.694Z,76.02
2019-02-25T07:23:48.045Z,75.70
2019-02-25T07:28:06.141Z,75.86
2019-02-25T07:32:25.950Z,75.57
2019-02-25T07:36:44.517Z,75.47
2019-02-25T07:40:51.009Z,75.36
2019-02-25T07:44:58.684Z,74.74
2019-02-25T07:49:05.259Z,74.96
2019-02-25T07:53:24.688Z,74.77
2019-02-25T07:57:36.819Z,74.62
2019-02-25T08:01:46.108Z,74.00
2019-02-25T08:05:52.386Z,73.36
2019-02-25T08:09:55.969Z,73.11
2019-02-25T08:14:05.565Z,73.13
2019-02-25T08:18:09.124Z,73.13
2019-02-25T08:22:28.743Z,73.52
2019-02-25T08:26:32.298Z,73.33
2019-02-25T08:30:38.815Z,72.36
2019-02-25T08:34:47.811Z,70.52
2019-02-25T08:39:07.569Z,70.22
2019-02-25T08:43:18.292Z,68.70
2019-02-25T08:47:21.847Z,66.40
2019-02-25T08:51:23.738Z,65.87
2019-02-25T08:55:25.651Z,65.54
2019-02-25T08:59:27.637Z,62.53
2019-02-25T09:03:29.545Z,61.85
2019-02-25T09:07:31.479Z,61.74
2019-02-25T09:11:33.379Z,60.53
2019-02-25T09:15:35.325Z,58.77
2019-02-25T09:19:37.243Z,57.22
2019-02-25T09:23:39.149Z,55.29
2019-02-25T09:27:41.219Z,54.35
2019-02-25T09:31:43.130Z,53.33
2019-02-25T09:35:45.039Z,52.18
2019-02-25T09:39:46.972Z,51.21
2019-02-25T09:43:48.871Z,49.25
2019-02-25T09:47:50.803Z,47.55
2019-02-25T09:51:52.696Z,46.15
2019-02-25T09:55:54.630Z,47.11
2019-02-25T09:59:56.530Z,45.25
2019-02-25T10:03:58.441Z,45.05
2019-02-25T10:08:00.350Z,43.74
2019-02-25T10:12:02.252Z,41.25
2019-02-25T10:16:06.301Z,40.52
2019-02-25T10:20:10.316Z,39.49
2019-02-25T10:24:12.226Z,39.56
2019-02-25T10:28:14.234Z,38.51
2019-02-25T10:32:17.042Z,38.40
2019-02-25T10:36:19.000Z,38.03
2019-02-25T10:40:24.408Z,37.12
2019-02-25T10:44:24.585Z,36.59
2019-02-25T10:48:26.503Z,35.89
2019-02-25T10:52:28.412Z,35.00
2019-02-25T10:56:37.582Z,34.41
2019-02-25T11:00:41.601Z,32.79
2019-02-25T11:04:43.364Z,32.48
2019-02-25T11:08:46.930Z,32.91
2019-02-25T11:12:48.908Z,33.32
2019-02-25T11:16:52.217Z,32.69
2019-02-25T11:20:54.224Z,32.18
2019-02-25T11:24:57.707Z,32.09
2019-02-25T11:29:05.610Z,30.78
2019-02-25T11:33:07.892Z,31.24
2019-02-25T11:37:09.794Z,32.11
2019-02-25T11:41:11.711Z,33.42
2019-02-25T11:45:18.117Z,34.90
2019-02-25T11:49:20.116Z,34.65
2019-02-25T11:53:22.089Z,35.28
2019-02-25T11:57:24.089Z,34.24
2019-02-25T12:01:26.001Z,35.06
2019-02-25T12:05:27.940Z,35.58
2019-02-25T12:09:29.860Z,35.00
2019-02-25T12:13:31.801Z,35.54
2019-02-25T12:17:33.787Z,34.93
2019-02-25T12:21:35.703Z,35.95
2019-02-25T12:25:37.620Z,34.00
2019-02-25T12:29:40.549Z,34.47
2019-02-25T12:33:42.454Z,35.60
2019-02-25T12:37:44.390Z,34.95
2019-02-25T12:41:46.311Z,35.25
2019-02-25T12:45:48.233Z,33.89
2019-02-25T12:49:50.150Z,33.72
2019-02-25T12:53:53.144Z,33.76
2019-02-25T12:57:55.064Z,32.71
2019-02-25T13:01:56.990Z,32.13
2019-02-25T13:05:58.961Z,32.29
2019-02-25T13:10:05.130Z,33.05
2019-02-25T13:14:07.218Z,32.46
2019-02-25T13:18:09.139Z,33.40
2019-02-25T13:22:11.061Z,33.44
2019-02-25T13:26:13.003Z,34.03
2019-02-25T13:30:17.672Z,33.06
2019-02-25T13:34:19.576Z,32.77
2019-02-25T13:38:21.518Z,33.00
2019-02-25T13:42:23.427Z,32.56
2019-02-25T13:46:25.391Z,32.33
2019-02-25T13:50:28.148Z,32.71
2019-02-25T13:54:30.054Z,32.57
2019-02-25T13:58:34.676Z,31.95
2019-02-25T14:02:36.632Z,32.78
2019-02-25T14:06:38.557Z,32.26
2019-02-25T14:10:40.550Z,32.23
2019-02-25T14:14:42.486Z,32.41
2019-02-25T14:18:44.420Z,32.53
2019-02-25T14:22:46.341Z,32.55
2019-02-25T14:26:48.272Z,32.19
2019-02-25T14:30:51.653Z,32.50
2019-02-25T14:34:53.580Z,31.89
2019-02-25T14:38:56.380Z,32.55
2019-02-25T14:43:02.277Z,32.30
2019-02-25T14:47:05.455Z,31.99
2019-02-25T14:51:08.782Z,31.64
2019-02-25T14:55:11.782Z,32.18
2019-02-25T14:59:15.599Z,33.06
2019-02-25T15:03:20.069Z,34.72
2019-02-25T15:07:22.727Z,37.23
2019-02-25T15:11:26.267Z,37.72
2019-02-25T15:15:28.211Z,38.40
2019-02-25T15:19:32.519Z,38.93
2019-02-25T15:23:33.804Z,39.52
2019-02-25T15:27:35.807Z,41.02
2019-02-25T15:31:44.387Z,42.17
2019-02-25T15:35:47.866Z,43.37
2019-02-25T15:39:50.741Z,44.24
2019-02-25T15:43:53.109Z,45.25
2019-02-25T15:47:55.537Z,46.12
2019-02-25T15:51:58.692Z,46.89
2019-02-25T15:56:01.505Z,48.07
2019-02-25T16:00:06.443Z,48.79
2019-02-25T16:04:11.765Z,49.40
2019-02-25T16:08:17.239Z,50.09
2019-02-25T16:12:19.126Z,50.83
2019-02-25T16:16:21.080Z,51.43
2019-02-25T16:20:25.519Z,51.92
2019-02-25T16:24:27.588Z,52.31
2019-02-25T16:28:37.838Z,52.95
2019-02-25T16:32:42.183Z,53.46
2019-02-25T16:36:49.662Z,54.18
2019-02-25T16:40:50.297Z,54.82
2019-02-25T16:44:52.409Z,55.36
2019-02-25T16:48:55.131Z,56.22
2019-02-25T16:52:58.029Z,56.97
2019-02-25T16:57:00.002Z,57.80
2019-02-25T17:01:07.544Z,58.69
2019-02-25T17:05:10.624Z,59.09
2019-02-25T17:09:20.431Z,59.71
2019-02-25T17:13:22.509Z,59.91
2019-02-25T17:17:24.868Z,60.36
2019-02-25T17:21:28.416Z,60.78
2019-02-25T17:25:31.726Z,61.09
2019-02-25T17:29:35.855Z,61.70
2019-02-25T17:33:38.024Z,62.20
2019-02-25T17:37:40.400Z,62.77
2019-02-25T17:41:44.792Z,63.20
2019-02-25T17:45:48.215Z,63.50
2019-02-25T17:49:51.736Z,63.83
2019-02-25T17:53:54.843Z,64.44
2019-02-25T17:57:58.699Z,64.82
2019-02-25T18:02:02.326Z,65.20
2019-02-25T18:06:08.469Z,65.60
2019-02-25T18:10:13.384Z,66.05
2019-02-25T18:14:17.534Z,66.63
2019-02-25T18:18:22.238Z,66.91
2019-02-25T18:22:24.803Z,67.48
2019-02-25T18:26:28.567Z,68.12
2019-02-25T18:30:32.890Z,68.19
2019-02-25T18:34:36.558Z,68.11
2019-02-25T18:38:38.746Z,68.67
2019-02-25T18:42:42.974Z,69.02
2019-02-25T18:46:45.988Z,69.34
2019-02-25T18:50:50.175Z,69.43
2019-02-25T18:54:51.652Z,69.50
2019-02-25T18:58:58.279Z,70.05
2019-02-25T19:02:58.292Z,70.08
2019-02-25T19:07:05.762Z,70.31
2019-02-25T19:11:08.031Z,70.62
2019-02-25T19:15:11.518Z,70.78
2019-02-25T19:19:14.654Z,71.10
2019-02-25T19:23:17.408Z,71.40
2019-02-25T19:27:19.456Z,71.76
2019-02-25T19:31:21.348Z,72.15
2019-02-25T19:35:25.850Z,72.33
2019-02-25T19:39:27.042Z,72.65
2019-02-25T19:43:29.001Z,72.86
2019-02-25T19:47:31.594Z,72.92
2019-02-25T19:51:34.519Z,73.46
2019-02-25T19:55:40.473Z,73.68
2019-02-25T19:59:40.072Z,73.93
2019-02-25T20:03:43.357Z,74.37
2019-02-25T20:07:45.854Z,74.80
2019-02-25T20:11:47.748Z,74.97
2019-02-25T20:15:51.145Z,74.74
2019-02-25T20:19:53.315Z,74.69
2019-02-25T20:23:55.980Z,74.70
2019-02-25T20:27:59.847Z,74.82
2019-02-25T20:32:04.080Z,75.23
2019-02-25T20:36:06.199Z,75.39
2019-02-25T20:40:11.491Z,75.44
2019-02-25T20:44:13.410Z,76.06
2019-02-25T20:48:16.541Z,75.95
2019-02-25T20:52:19.802Z,75.78
2019-02-25T20:56:22.392Z,75.92
2019-02-25T21:00:26.543Z,76.20
2019-02-25T21:04:28.458Z,76.32
2019-02-25T21:08:30.362Z,76.26
2019-02-25T21:12:32.274Z,76.18
2019-02-25T21:16:35.277Z,76.36
2019-02-25T21:20:37.181Z,76.56
2019-02-25T21:24:39.085Z,76.95
2019-02-25T21:28:42.748Z,76.61
2019-02-25T21:32:45.642Z,76.50
2019-02-25T21:36:48.290Z,77.07
2019-02-25T21:40:52.661Z,77.08
2019-02-25T21:44:56.616Z,77.24
2019-02-25T21:49:01.563Z,77.66
2019-02-25T21:53:06.987Z,77.86
2019-02-25T21:57:09.727Z,78.05
2019-02-25T22:01:11.727Z,77.99
2019-02-25T22:05:14.357Z,78.11
2019-02-25T22:09:22.684Z,78.13
2019-02-25T22:13:22.227Z,77.94
2019-02-25T22:17:24.674Z,77.84
2019-02-25T22:21:26.728Z,78.21
2019-02-25T22:25:29.611Z,78.24
2019-02-25T22:29:31.588Z,78.55
2019-02-25T22:33:33.490Z,78.74
2019-02-25T22:37:35.385Z,78.62
2019-02-25T22:41:37.304Z,78.85
2019-02-25T22:45:39.714Z,78.84
2019-02-25T22:49:42.793Z,79.16
2019-02-25T22:53:44.697Z,78.80
2019-02-25T22:57:49.110Z,79.28
2019-02-25T23:01:52.144Z,79.41
2019-02-25T23:05:55.228Z,79.44
2019-02-25T23:09:58.112Z,79.25
2019-02-25T23:14:00.023Z,79.15
2019-02-25T23:18:09.982Z,79.29
2019-02-25T23:22:09.116Z,79.40
2019-02-25T23:26:12.611Z,79.27
2019-02-25T23:30:15.967Z,79.86
2019-02-25T23:34:18.417Z,79.47
2019-02-25T23:38:21.478Z,79.20
2019-02-25T23:42:23.379Z,79.23
2019-02-25T23:46:27.370Z,79.09
2019-02-25T23:50:29.758Z,79.35
2019-02-25T23:54:32.497Z,79.53
2019-02-25T23:58:38.341Z,79.66
